createdAt,value
2022-08-12T00:03:17.732Z,93.30
2022-08-12T00:06:41.567Z,93.60
2022-08-12T00:10:01.151Z,92.40
2022-08-12T00:13:20.689Z,93.10
2022-08-12T00:16:40.270Z,93.20
2022-08-12T00:19:59.910Z,93.60
2022-08-12T00:23:21.168Z,92.40
2022-08-12T00:26:41.493Z,92.40
2022-08-12T00:30:02.318Z,93.20
2022-08-12T00:33:22.702Z,93.10
2022-08-12T00:36:50.372Z,92.20
2022-08-12T00:40:11.990Z,94.80
2022-08-12T00:43:16.783Z,94.50
2022-08-12T00:46:32.947Z,95.70
2022-08-12T00:49:35.737Z,96.40
2022-08-12T00:52:37.096Z,97.10
2022-08-12T00:55:46.808Z,95.50
2022-08-12T00:58:51.036Z,95.30
2022-08-12T01:02:04.243Z,95.00
2022-08-12T01:05:38.795Z,95.20
2022-08-12T01:08:59.584Z,94.40
2022-08-12T01:12:01.967Z,92.20
2022-08-12T01:15:04.182Z,91.50
2022-08-12T01:18:06.873Z,91.40
2022-08-12T01:21:24.835Z,90.40
2022-08-12T01:25:07.232Z,90.40
2022-08-12T01:28:14.610Z,90.30
2022-08-12T01:31:20.269Z,89.60
2022-08-12T01:34:36.186Z,89.10
2022-08-12T01:38:08.543Z,88.30
2022-08-12T01:41:14.061Z,88.70
2022-08-12T01:44:20.585Z,89.30
2022-08-12T01:48:15.164Z,89.90
2022-08-12T01:52:14.843Z,91.10
2022-08-12T01:55:23.668Z,92.60
2022-08-12T01:59:01.238Z,93.50
2022-08-12T02:02:11.407Z,94.20
2022-08-12T02:05:49.171Z,94.60
2022-08-12T02:09:18.601Z,94.70
2022-08-12T02:13:00.800Z,94.70
2022-08-12T02:16:32.053Z,94.70
2022-08-12T02:20:10.100Z,95.30
2022-08-12T02:23:15.240Z,95.20
2022-08-12T02:26:18.702Z,95.50
2022-08-12T02:29:20.323Z,95.90
2022-08-12T02:32:22.302Z,96.20
2022-08-12T02:35:26.674Z,96.00
2022-08-12T02:38:31.298Z,95.40
2022-08-12T02:41:37.241Z,96.00
2022-08-12T02:44:44.871Z,96.50
2022-08-12T02:47:58.318Z,97.30
2022-08-12T02:51:07.529Z,97.70
2022-08-12T02:54:08.785Z,97.20
2022-08-12T02:57:13.378Z,98.10
2022-08-12T03:00:16.342Z,98.10
2022-08-12T03:03:22.493Z,98.70
2022-08-12T03:06:27.573Z,98.90
2022-08-12T03:09:43.090Z,99.80
2022-08-12T03:13:00.564Z,99.70
2022-08-12T03:16:02.249Z,99.90
2022-08-12T03:19:04.042Z,99.90
2022-08-12T03:22:13.687Z,99.90
2022-08-12T03:25:27.611Z,99.90
2022-08-12T03:28:51.322Z,99.90
2022-08-12T03:32:00.631Z,99.90
2022-08-12T03:35:07.538Z,99.90
2022-08-12T03:38:12.568Z,99.90
2022-08-12T03:41:36.146Z,99.90
2022-08-12T03:45:34.540Z,99.90
2022-08-12T03:49:03.838Z,99.90
2022-08-12T03:52:24.982Z,99.90
2022-08-12T03:55:44.942Z,99.90
2022-08-12T03:59:05.223Z,99.90
2022-08-12T04:02:06.195Z,99.90
2022-08-12T04:05:12.947Z,99.90
2022-08-12T04:08:26.669Z,99.90
2022-08-12T04:11:47.626Z,99.90
2022-08-12T04:14:49.939Z,99.90
2022-08-12T04:18:06.697Z,99.90
2022-08-12T04:21:12.398Z,99.90
2022-08-12T04:24:13.602Z,99.90
2022-08-12T04:27:15.265Z,99.90
2022-08-12T04:30:32.688Z,99.90
2022-08-12T04:33:37.400Z,99.90
2022-08-12T04:36:41.244Z,99.90
2022-08-12T04:39:43.991Z,99.90
2022-08-12T04:42:45.839Z,99.90
2022-08-12T04:45:48.235Z,99.90
2022-08-12T04:48:49.688Z,99.90
2022-08-12T04:51:54.616Z,99.90
2022-08-12T04:55:01.392Z,99.90
2022-08-12T04:58:02.457Z,99.90
2022-08-12T05:01:03.952Z,99.90
2022-08-12T05:04:08.197Z,99.90
2022-08-12T05:07:09.062Z,99.90
2022-08-12T05:10:10.626Z,99.90
2022-08-12T05:13:17.047Z,99.90
2022-08-12T05:16:18.084Z,99.90
2022-08-12T05:19:29.751Z,99.90
2022-08-12T05:22:32.167Z,99.90
2022-08-12T05:25:38.739Z,99.90
2022-08-12T05:28:40.697Z,99.90
2022-08-12T05:31:48.243Z,99.90
2022-08-12T05:34:50.711Z,99.90
2022-08-12T05:38:15.410Z,99.90
2022-08-12T05:41:22.080Z,99.90
2022-08-12T05:44:23.190Z,99.90
2022-08-12T05:47:24.440Z,99.90
2022-08-12T05:50:46.750Z,99.60
2022-08-12T05:53:48.542Z,98.90
2022-08-12T05:56:49.986Z,99.20
2022-08-12T05:59:50.807Z,99.10
2022-08-12T06:03:03.988Z,98.30
2022-08-12T06:06:07.276Z,97.10
2022-08-12T06:09:11.479Z,95.90
2022-08-12T06:12:12.761Z,95.60
2022-08-12T06:15:14.037Z,94.70
2022-08-12T06:18:16.360Z,94.50
2022-08-12T06:21:23.468Z,95.00
2022-08-12T06:24:28.728Z,94.60
2022-08-12T06:27:29.927Z,94.20
2022-08-12T06:30:38.436Z,94.10
2022-08-12T06:33:55.747Z,93.80
2022-08-12T06:37:02.096Z,93.30
2022-08-12T06:40:04.786Z,92.80
2022-08-12T06:43:05.939Z,92.80
2022-08-12T06:46:06.936Z,92.80
2022-08-12T06:49:08.883Z,91.90
2022-08-12T06:52:09.656Z,91.50
2022-08-12T06:55:20.911Z,91.50
2022-08-12T06:58:25.235Z,90.70
2022-08-12T07:01:26.868Z,90.10
2022-08-12T07:04:43.216Z,89.80
2022-08-12T07:07:48.069Z,89.30
2022-08-12T07:10:59.300Z,89.00
2022-08-12T07:14:12.987Z,89.00
2022-08-12T07:17:18.251Z,88.80
2022-08-12T07:20:42.620Z,87.40
2022-08-12T07:23:42.355Z,87.00
2022-08-12T07:26:44.835Z,86.60
2022-08-12T07:30:03.776Z,87.20
2022-08-12T07:33:09.450Z,86.60
2022-08-12T07:36:14.414Z,86.80
2022-08-12T07:39:15.613Z,87.10
2022-08-12T07:42:17.220Z,86.70
2022-08-12T07:45:18.110Z,86.00
2022-08-12T07:48:19.575Z,85.30
2022-08-12T07:51:24.989Z,85.30
2022-08-12T07:54:27.195Z,84.80
2022-08-12T07:57:28.070Z,85.00
2022-08-12T08:00:32.827Z,85.80
2022-08-12T08:03:34.687Z,84.50
2022-08-12T08:06:44.930Z,83.70
2022-08-12T08:09:46.127Z,84.20
2022-08-12T08:12:53.690Z,82.80
2022-08-12T08:16:04.260Z,82.10
2022-08-12T08:19:05.318Z,81.90
2022-08-12T08:22:06.055Z,81.20
2022-08-12T08:25:35.304Z,81.30
2022-08-12T08:28:29.440Z,80.70
2022-08-12T08:31:30.638Z,80.00
2022-08-12T08:34:53.129Z,81.00
2022-08-12T08:37:53.301Z,79.70
2022-08-12T08:41:12.808Z,79.40
2022-08-12T08:44:39.665Z,78.60
2022-08-12T08:47:45.144Z,78.30
2022-08-12T08:50:46.108Z,76.80
2022-08-12T08:54:08.806Z,75.40
2022-08-12T08:57:10.090Z,73.80
2022-08-12T09:00:20.711Z,73.00
2022-08-12T09:04:21.377Z,72.60
2022-08-12T09:06:53.787Z,72.20
2022-08-12T09:10:02.097Z,70.60
2022-08-12T09:13:29.090Z,70.40
2022-08-12T09:16:45.659Z,70.60
2022-08-12T09:19:57.330Z,68.60
2022-08-12T09:23:01.417Z,67.20
2022-08-12T09:26:10.057Z,68.70
2022-08-12T09:29:14.317Z,65.10
2022-08-12T09:32:56.722Z,64.80
2022-08-12T09:35:44.451Z,66.50
2022-08-12T09:38:58.949Z,61.60
2022-08-12T09:42:40.495Z,60.90
2022-08-12T09:46:11.004Z,62.40
2022-08-12T09:49:16.239Z,61.00
2022-08-12T09:52:19.321Z,60.70
2022-08-12T09:56:06.176Z,59.20
2022-08-12T09:58:56.725Z,58.50
2022-08-12T10:02:44.817Z,58.00
2022-08-12T10:05:22.851Z,57.20
2022-08-12T10:08:44.643Z,58.20
2022-08-12T10:12:13.176Z,55.70
2022-08-12T10:15:15.524Z,56.60
2022-08-12T10:18:51.983Z,55.20
2022-08-12T10:21:56.728Z,56.20
2022-08-12T10:25:17.837Z,53.80
2022-08-12T10:28:38.937Z,54.50
2022-08-12T10:32:21.684Z,53.60
2022-08-12T10:35:02.146Z,52.20
2022-08-12T10:38:35.355Z,52.10
2022-08-12T10:41:58.544Z,52.00
2022-08-12T10:45:07.971Z,49.20
2022-08-12T10:48:21.768Z,49.20
2022-08-12T10:51:56.520Z,49.60
2022-08-12T10:54:56.213Z,48.10
2022-08-12T10:58:14.199Z,48.20
2022-08-12T11:04:14.723Z,46.90
2022-08-12T11:04:49.119Z,46.40
2022-08-12T11:08:37.084Z,45.50
2022-08-12T11:12:07.741Z,47.30
2022-08-12T11:14:49.157Z,44.40
2022-08-12T11:17:53.363Z,43.60
2022-08-12T11:20:57.991Z,47.60
2022-08-12T11:23:59.274Z,43.40
2022-08-12T11:27:11.011Z,43.40
2022-08-12T11:30:31.605Z,43.80
2022-08-12T11:34:05.099Z,43.80
2022-08-12T11:37:26.130Z,44.00
2022-08-12T11:40:28.805Z,45.60
2022-08-12T11:43:30.905Z,44.80
2022-08-12T11:46:37.388Z,44.40
2022-08-12T11:49:38.665Z,44.60
2022-08-12T11:52:56.318Z,43.80
2022-08-12T11:55:58.442Z,45.40
2022-08-12T12:02:02.052Z,43.40
2022-08-12T12:02:21.586Z,43.10
2022-08-12T12:05:22.794Z,42.30
2022-08-12T12:08:40.918Z,40.30
2022-08-12T12:11:49.381Z,41.90
2022-08-12T12:14:54.512Z,43.10
2022-08-12T12:17:56.607Z,41.50
2022-08-12T12:21:02.351Z,42.00
2022-08-12T12:24:06.467Z,39.00
2022-08-12T12:27:09.030Z,37.90
2022-08-12T12:30:18.523Z,37.40
2022-08-12T12:33:57.380Z,40.50
2022-08-12T12:36:54.820Z,40.10
2022-08-12T12:39:58.476Z,37.70
2022-08-12T12:43:05.167Z,38.20
2022-08-12T12:46:06.898Z,38.60
2022-08-12T12:49:10.993Z,36.60
2022-08-12T12:52:18.676Z,37.70
2022-08-12T12:55:23.416Z,38.50
2022-08-12T12:58:34.118Z,37.40
2022-08-12T13:01:41.964Z,38.20
2022-08-12T13:04:43.116Z,38.30
2022-08-12T13:07:54.251Z,36.90
2022-08-12T13:11:03.300Z,38.90
2022-08-12T13:14:12.555Z,42.20
2022-08-12T13:17:17.736Z,41.50
2022-08-12T13:20:38.526Z,42.20
2022-08-12T13:23:46.529Z,40.00
2022-08-12T13:26:48.881Z,39.80
2022-08-12T13:29:50.213Z,40.10
2022-08-12T13:33:00.630Z,39.30
2022-08-12T13:36:07.694Z,37.90
2022-08-12T13:39:12.416Z,36.80
2022-08-12T13:42:17.300Z,37.00
2022-08-12T13:45:18.885Z,40.10
2022-08-12T13:48:20.120Z,40.10
2022-08-12T13:51:24.383Z,40.20
2022-08-12T13:54:25.575Z,40.90
2022-08-12T13:57:47.003Z,41.40
2022-08-12T14:00:52.016Z,41.80
2022-08-12T14:03:54.381Z,41.20
2022-08-12T14:06:55.776Z,39.40
2022-08-12T14:10:16.927Z,38.70
2022-08-12T14:14:03.717Z,40.70
2022-08-12T14:16:49.339Z,39.90
2022-08-12T14:20:10.752Z,40.70
2022-08-12T14:24:01.093Z,40.90
2022-08-12T14:26:33.733Z,38.90
2022-08-12T14:29:56.430Z,39.80
2022-08-12T14:32:55.754Z,39.90
2022-08-12T14:35:57.533Z,40.20
2022-08-12T14:39:00.726Z,40.90
2022-08-12T14:42:01.970Z,43.00
2022-08-12T14:45:02.915Z,45.80
2022-08-12T14:48:08.747Z,44.00
2022-08-12T14:52:48.298Z,43.30
2022-08-12T14:57:58.502Z,42.20
2022-08-12T15:01:21.202Z,43.60
2022-08-12T15:04:29.251Z,44.00
2022-08-12T15:07:34.469Z,43.90
2022-08-12T15:10:53.930Z,47.10
2022-08-12T15:13:55.972Z,48.30
2022-08-12T15:16:56.847Z,47.60
2022-08-12T15:20:31.762Z,48.40
2022-08-12T15:23:29.200Z,48.60
2022-08-12T15:26:40.961Z,49.00
2022-08-12T15:29:41.818Z,50.40
2022-08-12T15:32:48.665Z,48.50
2022-08-12T15:35:53.424Z,49.10
2022-08-12T15:38:55.058Z,47.50
2022-08-12T15:41:56.951Z,48.00
2022-08-12T15:45:03.785Z,46.90
2022-08-12T15:48:16.714Z,47.40
2022-08-12T15:51:59.324Z,48.10
2022-08-12T15:55:06.209Z,47.60
2022-08-12T15:58:13.103Z,47.90
2022-08-12T16:01:19.562Z,48.40
2022-08-12T16:04:21.231Z,48.50
2022-08-12T16:07:30.168Z,48.90
2022-08-12T16:10:34.261Z,50.20
2022-08-12T16:13:36.312Z,51.70
2022-08-12T16:16:37.550Z,52.00
2022-08-12T16:20:04.068Z,52.90
2022-08-12T16:23:51.117Z,50.80
2022-08-12T16:26:35.380Z,50.80
2022-08-12T16:29:54.195Z,50.00
2022-08-12T16:32:55.278Z,51.30
2022-08-12T16:35:58.399Z,51.40
2022-08-12T16:39:03.413Z,52.00
2022-08-12T16:42:04.978Z,52.60
2022-08-12T16:45:09.780Z,54.20
2022-08-12T16:48:34.182Z,56.30
2022-08-12T16:51:40.540Z,56.10
2022-08-12T16:54:42.693Z,56.20
2022-08-12T16:57:48.676Z,54.80
2022-08-12T17:00:51.777Z,54.80
2022-08-12T17:04:09.032Z,56.40
2022-08-12T17:07:17.304Z,55.70
2022-08-12T17:10:36.038Z,57.00
2022-08-12T17:13:53.104Z,57.00
2022-08-12T17:16:55.710Z,56.50
2022-08-12T17:20:34.120Z,57.20
2022-08-12T17:23:47.941Z,57.10
2022-08-12T17:26:56.455Z,56.40
2022-08-12T17:30:03.010Z,57.20
2022-08-12T17:33:07.024Z,58.90
2022-08-12T17:36:10.630Z,59.00
2022-08-12T17:39:12.645Z,58.60
2022-08-12T17:42:34.310Z,59.00
2022-08-12T17:45:39.541Z,59.70
2022-08-12T17:48:54.651Z,59.30
2022-08-12T17:52:01.987Z,59.40
2022-08-12T17:55:07.075Z,60.20
2022-08-12T17:58:36.974Z,59.50
2022-08-12T18:01:45.276Z,60.10
2022-08-12T18:05:09.393Z,61.60
2022-08-12T18:08:11.230Z,62.00
2022-08-12T18:12:04.479Z,62.60
2022-08-12T18:14:54.751Z,63.60
2022-08-12T18:18:02.798Z,63.60
2022-08-12T18:21:08.704Z,64.40
2022-08-12T18:24:21.602Z,64.40
2022-08-12T18:27:43.786Z,64.50
2022-08-12T18:30:52.254Z,65.90
2022-08-12T18:33:54.772Z,66.00
2022-08-12T18:37:10.210Z,66.40
2022-08-12T18:40:44.585Z,67.80
2022-08-12T18:43:58.726Z,68.70
2022-08-12T18:47:04.931Z,68.70
2022-08-12T18:50:06.568Z,69.10
2022-08-12T18:54:05.528Z,70.20
2022-08-12T18:56:39.673Z,71.20
2022-08-12T19:00:00.783Z,72.20
2022-08-12T19:03:23.367Z,71.60
2022-08-12T19:06:36.026Z,72.10
2022-08-12T19:09:58.907Z,73.80
2022-08-12T19:13:23.324Z,74.80
2022-08-12T19:16:25.444Z,74.60
2022-08-12T19:19:27.506Z,75.30
2022-08-12T19:22:38.980Z,76.40
2022-08-12T19:26:01.605Z,77.90
2022-08-12T19:29:06.966Z,78.00
2022-08-12T19:32:13.759Z,78.10
2022-08-12T19:38:36.170Z,78.60
2022-08-12T19:41:55.708Z,78.70
2022-08-12T19:45:05.103Z,78.20
2022-08-12T19:48:17.469Z,78.40
2022-08-12T19:51:33.294Z,77.80
2022-08-12T19:54:34.495Z,78.50
2022-08-12T19:57:36.468Z,78.40
2022-08-12T20:00:44.768Z,78.80
2022-08-12T20:03:59.129Z,78.40
2022-08-12T20:07:01.601Z,78.60
2022-08-12T20:10:09.254Z,78.90
2022-08-12T20:13:18.098Z,79.90
2022-08-12T20:16:47.411Z,80.70
2022-08-12T20:20:01.701Z,80.90
2022-08-12T20:23:06.349Z,80.70
2022-08-12T20:26:11.108Z,80.90
2022-08-12T20:29:13.796Z,80.60
2022-08-12T20:32:15.103Z,80.40
2022-08-12T20:35:25.164Z,80.70
2022-08-12T20:38:46.762Z,81.00
2022-08-12T20:41:50.923Z,81.40
2022-08-12T20:44:53.039Z,81.70
2022-08-12T20:48:01.616Z,80.70
2022-08-12T20:51:19.493Z,80.30
2022-08-12T20:54:22.481Z,80.10
2022-08-12T20:57:24.104Z,80.20
2022-08-12T21:00:28.212Z,81.20
2022-08-12T21:03:52.725Z,81.60
2022-08-12T21:07:08.169Z,82.30
2022-08-12T21:10:11.181Z,82.70
2022-08-12T21:13:20.498Z,83.30
2022-08-12T21:16:35.622Z,83.50
2022-08-12T21:19:53.034Z,83.90
2022-08-12T21:22:55.270Z,84.30
2022-08-12T21:26:01.184Z,84.70
2022-08-12T21:29:04.818Z,85.00
2022-08-12T21:32:36.986Z,85.60
2022-08-12T21:35:27.848Z,85.90
2022-08-12T21:38:34.805Z,86.70
2022-08-12T21:41:37.860Z,87.10
2022-08-12T21:45:47.732Z,87.50
2022-08-12T21:48:00.579Z,88.10
2022-08-12T21:51:01.283Z,88.90
2022-08-12T21:54:06.795Z,89.50
2022-08-12T21:57:14.096Z,90.20
2022-08-12T22:00:17.011Z,90.70
2022-08-12T22:04:03.407Z,90.30
2022-08-12T22:06:59.290Z,91.00
2022-08-12T22:10:00.272Z,91.40
2022-08-12T22:13:06.919Z,91.80
2022-08-12T22:16:31.100Z,92.30
2022-08-12T22:19:35.491Z,92.00
2022-08-12T22:22:38.131Z,92.10
2022-08-12T22:25:40.129Z,92.30
2022-08-12T22:29:04.035Z,92.50
2022-08-12T22:32:05.743Z,93.20
2022-08-12T22:35:56.705Z,93.60
2022-08-12T22:38:55.694Z,93.60
2022-08-12T22:42:19.845Z,93.60
2022-08-12T22:45:48.606Z,93.10
2022-08-12T22:48:57.777Z,93.60
2022-08-12T22:52:08.635Z,92.70
2022-08-12T22:55:12.513Z,92.00
2022-08-12T22:58:13.794Z,92.20
2022-08-12T23:01:50.204Z,92.30
2022-08-12T23:04:38.722Z,92.10
2022-08-12T23:08:00.004Z,92.20
2022-08-12T23:11:05.984Z,92.20
2022-08-12T23:14:07.495Z,91.90
2022-08-12T23:17:08.770Z,91.90
2022-08-12T23:20:29.970Z,91.90
2022-08-12T23:23:30.580Z,92.30
2022-08-12T23:27:10.273Z,92.90
2022-08-12T23:30:19.029Z,93.40
2022-08-12T23:34:02.579Z,93.70
2022-08-12T23:36:44.655Z,94.00
2022-08-12T23:40:08.335Z,94.10
2022-08-12T23:43:12.415Z,94.10
2022-08-12T23:46:18.415Z,93.60
2022-08-12T23:49:55.720Z,93.60
2022-08-12T23:52:46.579Z,93.40
2022-08-12T23:55:50.059Z,92.80
2022-08-12T23:58:57.435Z,92.50
